• Join FlightAware (Why Join?)
  • Login
  • US Flag 
10:58AM EST


 

Airport Tracker/Info


-or-


 

Live Flight TrackerFlight Track Log ✈ AAL963 ✈ 06-Aug-2013 ✈ KDFW - SBGR / GRU

Flight Track Log - Related Links

Times and Time Zones

All times are in EDT time to prevent confusion due to time zone crossing. See the AAL963 flight status page for this flight to view local times or setup timezone preferences in your user account.

Time Position Orientation Groundspeed Altitude Reporting Facility
EDT Latitude Longitude Course Direction KTS MPH feet Rate Location/Type
09:20PM 32.8790 -97.0510 180° South 189 217 1,300  Level FlightAware
09:20PM 32.8600 -97.0540 188° South 181 208 2,300 2,040 Climbing FlightAware
09:21PM 32.8420 -97.0580 191° South 192 221 2,700 960 Climbing FlightAware
09:21PM 32.8310 -97.0610 193° South 203 234 2,800 540 Climbing FlightAware
09:21PM 32.8120 -97.0650 190° South 228 262 3,000 1,020 Climbing FlightAware
09:22PM 32.7850 -97.0710 191° South 244 281 3,600 1,860 Climbing FlightAware
09:22PM 32.7660 -97.0740 188° South 243 280 4,300 1,920 Climbing FlightAware
09:22PM 32.7380 -97.0670 168° South 256 295 4,900 1,740 Climbing FlightAware
09:23PM 32.7150 -97.0590 164° South 258 297 5,600 2,040 Climbing FlightAware
09:23PM 32.6870 -97.0470 160° South 267 307 6,400 1,920 Climbing FlightAware
09:23PM 32.6760 -97.0410 155° Southeast 271 312 6,700 1,860 Climbing FlightAware
09:23PM 32.6500 -97.0270 156° South 277 319 7,400 1,680 Climbing FlightAware
09:24PM 32.6260 -97.0120 152° Southeast 287 330 7,900 1,860 Climbing FlightAware
09:24PM 32.5970 -96.9960 155° Southeast 287 330 8,800 1,980 Climbing FlightAware
09:24PM 32.5840 -96.9880 153° Southeast 289 333 9,100 1,620 Climbing FlightAware
09:25PM 32.5530 -96.9710 155° Southeast 297 342 9,800 1,680 Climbing FlightAware
09:25PM 32.5140 -96.9480 154° Southeast 307 353 10,700 1,380 Climbing FlightAware
09:26PM 32.4660 -96.9190 153° Southeast 335 386 11,400 1,080 Climbing FlightAware
09:27PM 32.4140 -96.8900 155° Southeast 365 420 12,000 1,140 Climbing FlightAware
09:27PM 32.3560 -96.8580 155° Southeast 390 449 12,800 1,440 Climbing FlightAware
09:28PM 32.3030 -96.8280 154° Southeast 403 464 13,700 1,800 Climbing FlightAware
09:28PM 32.2410 -96.8000 159° South 408 470 14,900 1,800 Climbing FlightAware
09:29PM 32.1740 -96.7740 162° South 420 483 15,900 1,860 Climbing FlightAware
09:29PM 32.1164 -96.7516 162° South 424 488 17,000 1,860 Climbing FlightAware ADS-B
09:30PM 32.0485 -96.7256 162° South 427 491 18,000 1,680 Climbing FlightAware ADS-B
09:31PM 31.9821 -96.7003 162° South 440 506 19,000 1,680 Climbing FlightAware ADS-B
09:31PM 31.9070 -96.6720 162° South 446 513 20,100 1,740 Climbing FlightAware
09:31PM 31.8878 -96.6646 162° South 444 511 20,400 1,800 Climbing FlightAware ADS-B
09:32PM 31.8255 -96.6397 161° South 451 519 21,300 1,740 Climbing FlightAware ADS-B
09:32PM 31.7660 -96.6150 161° South 453 521 22,200 1,560 Climbing FlightAware ADS-B
09:34PM 31.6246 -96.5569 161° South 466 536 24,000 1,380 Climbing FlightAware ADS-B
09:34PM 31.5608 -96.5310 161° South 472 543 24,600 1,200 Climbing FlightAware ADS-B
09:35PM 31.4030 -96.4705 163° South 483 556 26,200 1,260 Climbing FlightAware ADS-B
09:36PM 31.3376 -96.4463 162° South 487 560 26,900 1,320 Climbing FlightAware ADS-B
09:36PM 31.2723 -96.4221 162° South 489 563 27,600 1,320 Climbing FlightAware ADS-B
09:37PM 31.2138 -96.3998 162° South 493 567 28,200 1,320 Climbing FlightAware ADS-B
09:37PM 31.1774 -96.3776 149° Southeast 494 568 28,600 1,080 Climbing FlightAware ADS-B
09:37PM 31.1608 -96.3631 143° Southeast 496 571 28,700 900 Climbing FlightAware ADS-B
09:38PM 31.1254 -96.3185 128° Southeast 499 574 29,100 780 Climbing FlightAware ADS-B
09:40PM 30.9187 -95.9814 126° Southeast 504 580 31,000 600 Climbing FlightAware ADS-B
09:41PM 30.8775 -95.9148 126° Southeast 503 579 31,000  Level FlightAware ADS-B
09:41PM 30.8364 -95.8487 126° Southeast 502 578 31,000  Level FlightAware ADS-B
09:42PM 30.7956 -95.7832 126° Southeast 501 577 31,000  Level FlightAware ADS-B
09:42PM 30.7538 -95.7161 126° Southeast 501 577 31,000  Level FlightAware ADS-B
09:43PM 30.7115 -95.6483 126° Southeast 501 577 31,000  Level FlightAware ADS-B
09:43PM 30.6705 -95.5826 126° Southeast 501 577 31,000  Level FlightAware ADS-B
09:46PM 30.4544 -95.2381 126° Southeast 502 578 31,000  Level FlightAware ADS-B
09:46PM 30.4128 -95.1721 126° Southeast 502 578 31,000  Level FlightAware ADS-B
09:47PM 30.3700 -95.1044 126° Southeast 502 578 31,000  Level FlightAware ADS-B
09:47PM 30.3290 -95.0396 126° Southeast 502 578 31,000  Level FlightAware ADS-B
09:51PM 30.0362 -94.5799 126° Southeast 502 578 31,000  Level FlightAware ADS-B
09:51PM 29.9947 -94.5152 127° Southeast 502 578 31,000  Level FlightAware ADS-B
09:52PM 29.9522 -94.4490 127° Southeast 501 577 31,000  Level FlightAware ADS-B
09:54PM 29.7423 -94.1237 127° Southeast 503 579 31,000  Level FlightAware ADS-B
09:55PM 29.6757 -94.0329 134° Southeast 502 578 31,000  Level FlightAware ADS-B
09:55PM 29.6518 -94.0086 139° Southeast 502 578 31,000  Level FlightAware ADS-B
09:56PM 29.6360 -93.9944 142° Southeast 504 580 31,000  Level FlightAware ADS-B
09:56PM 29.5791 -93.9455 143° Southeast 505 581 31,000  Level FlightAware ADS-B
09:57PM 29.5217 -93.8965 143° Southeast 505 581 31,000  Level FlightAware ADS-B
09:57PM 29.4637 -93.8473 144° Southeast 506 582 31,000  Level FlightAware ADS-B
09:58PM 29.4065 -93.7986 143° Southeast 507 583 31,000  Level FlightAware ADS-B
09:59PM 29.2965 -93.7049 143° Southeast 507 583 31,000  Level FlightAware ADS-B
09:59PM 29.2300 -93.6484 143° Southeast 507 583 31,000  Level FlightAware ADS-B
10:00PM 29.1733 -93.6004 144° Southeast 507 583 31,000  Level FlightAware ADS-B
10:01PM 29.0114 -93.4636 144° Southeast 506 582 31,000  Level FlightAware ADS-B
10:02PM 28.9515 -93.4132 144° Southeast 507 583 31,000  Level FlightAware ADS-B
10:02PM 28.8825 -93.3542 144° Southeast 506 582 31,000  Level Houston Center
10:03PM 28.7692 -93.2586 144° Southeast 506 582 31,000  Level Houston Center
10:04PM 28.6553 -93.1639 144° Southeast 508 585 31,000  Level Houston Center
10:05PM 28.5414 -93.0683 144° Southeast 509 586 31,000  Level Houston Center
10:06PM 28.4275 -92.9725 143° Southeast 510 587 31,000  Level Houston Center
10:07PM 28.3133 -92.8775 144° Southeast 509 586 31,000 -60 Level Houston Center
10:08PM 28.1986 -92.7836 144° Southeast 509 586 30,900  Descending Houston Center
10:09PM 28.0844 -92.6892 144° Southeast 508 585 31,000  Climbing Houston Center
10:10PM 27.9486 -92.5756 144° Southeast 508 585 30,900  Descending Houston Center
10:11PM 27.8339 -92.4842 145° Southeast 505 581 31,000  Climbing Houston Center
10:12PM 27.7208 -92.3908 144° Southeast 505 581 30,900  Descending Houston Center
10:14PM 27.6069 -92.3003 145° Southeast 501 577 31,000  Climbing Houston Center
10:15PM 27.4933 -92.2072 144° Southeast 504 580 31,000  Level Houston Center
10:16PM 27.3808 -92.1153 144° Southeast 503 579 31,000  Level Houston Center
10:17PM 27.2667 -92.0231 144° Southeast 503 579 31,000  Level Houston Center
10:18PM 27.1536 -91.9319 144° Southeast 502 578 31,000 -60 Level Houston Center
10:19PM 27.0397 -91.8436 145° Southeast 500 575 30,900  Descending Houston Center
10:20PM 26.9258 -91.7542 145° Southeast 500 575 31,000  Climbing Houston Center
10:22PM 26.7231 -91.5877 144° Southeast  Level FlightAware Approximate
10:29PM 25.9640 -90.9800 145° Southeast  Level FlightAware Approximate
10:30PM 25.8548 -90.8947 145° Southeast  Level FlightAware Approximate
10:31PM 25.7456 -90.8095 145° Southeast  Level FlightAware Approximate
10:32PM 25.6363 -90.7245 145° Southeast  Level FlightAware Approximate
10:33PM 25.5270 -90.6397 145° Southeast  Level FlightAware Approximate
10:34PM 25.4176 -90.5550 145° Southeast  Level FlightAware Approximate
10:35PM 25.3081 -90.4704 145° Southeast  Level FlightAware Approximate
10:36PM 25.1987 -90.3860 145° Southeast  Level FlightAware Approximate
10:37PM 25.0892 -90.3018 145° Southeast  Level FlightAware Approximate
10:38PM 24.9796 -90.2177 145° Southeast  Level FlightAware Approximate
10:39PM 24.8702 -90.1334 145° Southeast  Level FlightAware Approximate
10:40PM 24.7607 -90.0494 145° Southeast  Level FlightAware Approximate
10:41PM 24.6511 -89.9655 145° Southeast  Level FlightAware Approximate
10:42PM 24.5416 -89.8817 145° Southeast  Level FlightAware Approximate
10:43PM 24.4332 -89.7965 146° Southeast  Level FlightAware Approximate
10:44PM 24.3221 -89.7152 146° Southeast  Level FlightAware Approximate
10:45PM 24.2111 -89.6341 146° Southeast  Level FlightAware Approximate
10:46PM 24.1000 -89.5530 146° Southeast  Level FlightAware Approximate
10:47PM 23.9922 -89.4671 142° Southeast  Level FlightAware Approximate
10:48PM 23.8906 -89.3726 137° Southeast  Level FlightAware Approximate
10:49PM 23.7934 -89.2727 137° Southeast  Level FlightAware Approximate
10:50PM 23.6961 -89.1729 137° Southeast  Level FlightAware Approximate
10:51PM 23.5987 -89.0732 137° Southeast  Level FlightAware Approximate
10:52PM 23.5013 -88.9737 137° Southeast  Level FlightAware Approximate
10:52PM 23.3180 -88.8200 137° Southeast 493 567 31,000  Level FlightAware
10:52PM 23.2600 -88.7650 139° Southeast 493 567 31,000  Level FlightAware
10:53PM 23.4038 -88.8743 137° Southeast  Level FlightAware Approximate
10:53PM 23.1780 -88.6910 140° Southeast 494 568 31,000  Level FlightAware
10:54PM 23.1260 -88.6410 139° Southeast 494 568 31,000  Level FlightAware
10:54PM 23.0730 -88.5910 139° Southeast 494 568 31,000  Level FlightAware
10:55PM 23.0200 -88.5410 139° Southeast 494 568 31,000  Level FlightAware
10:55PM 22.9500 -88.4840 143° Southeast 246 283 31,000  Level FlightAware
10:56PM 22.8640 -88.4060 140° Southeast 492 566 31,000  Level FlightAware
10:57PM 22.8100 -88.3570 140° Southeast 491 565 31,000  Level FlightAware
10:57PM 22.7530 -88.3050 140° Southeast 490 564 31,000  Level FlightAware
10:58PM 22.6840 -88.2420 140° Southeast 491 565 31,000  Level FlightAware
10:59PM 22.6180 -88.1820 140° Southeast 491 565 31,000  Level FlightAware
10:59PM 22.5540 -88.1250 141° Southeast 491 565 31,000  Level FlightAware
10:59PM 22.5120 -88.0870 140° Southeast 493 567 31,000  Level FlightAware
11:00PM 22.4340 -88.0170 140° Southeast 492 566 31,000  Level FlightAware
11:01PM 22.3700 -87.9590 140° Southeast 493 567 31,000  Level FlightAware
11:02PM 22.3060 -87.9020 141° Southeast 490 564 31,000  Level FlightAware
11:03PM 22.1860 -87.7940 140° Southeast 490 564 31,000  Level FlightAware
11:03PM 22.1210 -87.7360 140° Southeast 489 563 31,000  Level FlightAware
11:04PM 22.0490 -87.6720 141° Southeast 489 563 31,000  Level FlightAware
11:04PM 21.9920 -87.6200 140° Southeast 489 563 31,000  Level FlightAware
11:05PM 21.9290 -87.5640 140° Southeast 490 564 31,000  Level FlightAware
11:06PM 21.8710 -87.5120 140° Southeast 490 564 31,000  Level FlightAware
11:06PM 21.8170 -87.4640 140° Southeast 490 564 31,000  Level FlightAware
11:07PM 21.7520 -87.4060 140° Southeast 489 563 31,000  Level FlightAware
11:07PM 21.6930 -87.3540 141° Southeast 489 563 31,000  Level FlightAware
11:08PM 21.6310 -87.2990 140° Southeast 488 562 31,000  Level FlightAware
11:09PM 21.5650 -87.2410 141° Southeast 488 562 31,000  Level FlightAware
11:09PM 21.5010 -87.1840 140° Southeast 488 562 31,000  Level FlightAware
11:10PM 21.4410 -87.1310 141° Southeast 488 562 31,000  Level FlightAware
11:10PM 21.3800 -87.0770 140° Southeast 489 563 31,000  Level FlightAware
11:11PM 21.3160 -87.0200 140° Southeast 488 562 31,000  Level FlightAware
11:11PM 21.2510 -86.9630 141° Southeast 487 560 31,000  Level FlightAware
11:12PM 21.1910 -86.9100 141° Southeast 487 560 31,000  Level FlightAware
11:13PM 21.1280 -86.8550 141° Southeast 487 560 31,000  Level FlightAware
11:13PM 21.0660 -86.8000 140° Southeast 488 562 31,000  Level FlightAware
11:14PM 21.0100 -86.7510 141° Southeast 488 562 31,000  Level FlightAware
11:14PM 20.9430 -86.6920 141° Southeast 490 564 31,000 300 Level FlightAware
11:15PM 20.8860 -86.6420 141° Southeast 493 567 31,400 1,080 Climbing FlightAware
11:16PM 20.8270 -86.5910 141° Southeast 493 567 32,200 1,320 Climbing FlightAware
11:16PM 20.7590 -86.5310 140° Southeast 492 566 33,000 600 Climbing FlightAware
11:17PM 20.6970 -86.4770 141° Southeast 490 564 33,000  Level FlightAware
11:17PM 20.6400 -86.4270 141° Southeast 491 565 33,000  Level FlightAware
11:18PM 20.5790 -86.3750 141° Southeast 491 565 33,000  Level FlightAware
11:18PM 20.5140 -86.3180 141° Southeast 492 566 33,000  Level FlightAware
11:19PM 20.4500 -86.2600 140° Southeast 492 566 33,000  Level FlightAware
11:20PM 20.4020 -86.2180 141° Southeast 492 566 33,000  Level FlightAware
11:20PM 20.3490 -86.1700 140° Southeast 492 566 33,000  Level FlightAware
11:21PM 20.2960 -86.1220 140° Southeast 492 566 33,000  Level FlightAware
11:22PM 20.2420 -86.0750 141° Southeast 492 566 33,000  Level FlightAware
11:22PM 20.1490 -86.0010 143° Southeast 486 559 33,000  Level FlightAware
11:23PM 20.0480 -85.9140 141° Southeast 488 562 33,000  Level FlightAware
11:23PM 19.9890 -85.8620 140° Southeast 488 562 33,000  Level FlightAware
11:24PM 19.9280 -85.8040 138° Southeast 489 563 33,000  Level FlightAware
11:25PM 19.8680 -85.7460 138° Southeast 489 563 33,000  Level FlightAware
11:25PM 19.8140 -85.6940 138° Southeast 490 564 33,000  Level FlightAware
11:26PM 19.7490 -85.6330 139° Southeast 491 565 33,000  Level FlightAware
11:26PM 19.6920 -85.5800 139° Southeast 492 566 33,000  Level FlightAware
11:27PM 19.6340 -85.5250 138° Southeast 492 566 33,000  Level FlightAware
11:28PM 19.5830 -85.4760 138° Southeast 492 566 33,000  Level FlightAware
11:28PM 19.5080 -85.4080 139° Southeast 495 570 33,000  Level FlightAware
11:29PM 19.4500 -85.3530 138° Southeast 495 570 33,000  Level FlightAware
11:29PM 19.3820 -85.2900 139° Southeast 495 570 33,000  Level FlightAware
11:30PM 19.3100 -85.2220 138° Southeast 494 568 33,000  Level FlightAware
11:31PM 19.2580 -85.1720 138° Southeast 494 568 33,000  Level FlightAware
11:31PM 19.2060 -85.1230 138° Southeast 494 568 33,000  Level FlightAware
11:32PM 19.1540 -85.0730 138° Southeast 494 568 33,000  Level FlightAware
11:33PM 19.1020 -85.0240 138° Southeast 494 568 33,000  Level FlightAware
11:33PM 19.0500 -84.9740 138° Southeast 494 568 33,000  Level FlightAware
11:34PM 18.9980 -84.9250 138° Southeast 494 568 33,000  Level FlightAware
11:34PM 18.9460 -84.8750 138° Southeast 494 568 33,000  Level FlightAware
11:35PM 18.8940 -84.8260 138° Southeast 494 568 33,000  Level FlightAware
11:36PM 18.8420 -84.7760 138° Southeast 494 568 33,000  Level FlightAware
11:36PM 18.7900 -84.7270 138° Southeast 494 568 33,000  Level FlightAware
11:37PM 18.7380 -84.6780 138° Southeast 494 568 33,000  Level FlightAware
11:37PM 18.6860 -84.6280 138° Southeast 494 568 33,000  Level FlightAware
11:38PM 18.6340 -84.5790 138° Southeast 494 568 33,000  Level FlightAware
11:39PM 18.5820 -84.5290 138° Southeast 494 568 33,000  Level FlightAware
11:39PM 18.5300 -84.4800 138° Southeast 494 568 33,000  Level FlightAware
11:42PM 18.3032 -84.2577 137° Southeast  Level Estimated
11:43PM 18.2052 -84.1619 137° Southeast  Level Estimated
11:44PM 18.1072 -84.0662 137° Southeast  Level Estimated
11:45PM 18.0091 -83.9706 137° Southeast  Level Estimated
11:46PM 17.9110 -83.8752 137° Southeast  Level Estimated
11:47PM 17.8128 -83.7798 137° Southeast  Level Estimated
11:48PM 17.7146 -83.6846 137° Southeast  Level Estimated
11:49PM 17.6164 -83.5894 137° Southeast  Level Estimated
11:50PM 17.5181 -83.4944 137° Southeast  Level Estimated
11:51PM 17.4197 -83.3995 137° Southeast  Level Estimated
11:52PM 17.3213 -83.3046 137° Southeast  Level Estimated
11:53PM 17.2229 -83.2099 137° Southeast  Level Estimated
11:54PM 17.1244 -83.1152 137° Southeast  Level Estimated
11:55PM 17.0259 -83.0207 137° Southeast  Level Estimated
11:56PM 16.9273 -82.9262 137° Southeast  Level Estimated
11:57PM 16.8287 -82.8319 138° Southeast  Level Estimated
11:58PM 16.7300 -82.7377 138° Southeast  Level Estimated
11:59PM 16.6313 -82.6435 138° Southeast  Level Estimated
12:00AM 16.5326 -82.5495 138° Southeast  Level Estimated
12:01AM 16.4338 -82.4555 138° Southeast  Level Estimated
12:02AM 16.3350 -82.3617 138° Southeast  Level Estimated
12:03AM 16.2361 -82.2679 138° Southeast  Level Estimated
12:04AM 16.1372 -82.1743 138° Southeast  Level Estimated
12:05AM 16.0382 -82.0807 138° Southeast  Level Estimated
12:06AM 15.9392 -81.9872 138° Southeast  Level Estimated
12:07AM 15.8402 -81.8938 138° Southeast  Level Estimated
12:08AM 15.7411 -81.8005 138° Southeast  Level Estimated
12:09AM 15.6420 -81.7073 138° Southeast  Level Estimated
12:10AM 15.5429 -81.6142 138° Southeast  Level Estimated
12:11AM 15.4437 -81.5212 138° Southeast  Level Estimated
12:12AM 15.3445 -81.4283 138° Southeast  Level Estimated
12:13AM 15.2452 -81.3354 138° Southeast  Level Estimated
12:14AM 15.1459 -81.2427 138° Southeast  Level Estimated
12:15AM 15.0466 -81.1500 138° Southeast  Level Estimated
12:16AM 14.9472 -81.0574 138° Southeast  Level Estimated
12:17AM 14.8479 -80.9651 138° Southeast  Level Estimated
12:18AM 14.7487 -80.8728 138° Southeast  Level Estimated
12:19AM 14.6494 -80.7807 138° Southeast  Level Estimated
12:20AM 14.5500 -80.6886 138° Southeast  Level Estimated
12:21AM 14.4506 -80.5966 138° Southeast  Level Estimated
12:22AM 14.3512 -80.5047 138° Southeast  Level Estimated
12:23AM 14.2517 -80.4128 138° Southeast  Level Estimated
12:24AM 14.1523 -80.3211 138° Southeast  Level Estimated
12:25AM 14.0527 -80.2294 138° Southeast  Level Estimated
12:26AM 13.9532 -80.1378 138° Southeast  Level Estimated
12:27AM 13.8536 -80.0463 138° Southeast  Level Estimated
12:28AM 13.7539 -79.9549 138° Southeast  Level Estimated
12:29AM 13.6543 -79.8635 138° Southeast  Level Estimated
12:30AM 13.5546 -79.7722 138° Southeast  Level Estimated
12:31AM 13.4549 -79.6811 138° Southeast  Level Estimated
12:32AM 13.3551 -79.5899 138° Southeast  Level Estimated
12:33AM 13.2553 -79.4989 138° Southeast  Level Estimated
12:34AM 13.1555 -79.4079 138° Southeast  Level Estimated
12:35AM 13.0556 -79.3170 138° Southeast  Level Estimated
12:36AM 12.9557 -79.2262 138° Southeast  Level Estimated
12:37AM 12.8558 -79.1354 138° Southeast  Level Estimated
12:38AM 12.7558 -79.0447 138° Southeast  Level Estimated
12:39AM 12.6559 -78.9541 139° Southeast  Level Estimated
12:40AM 12.5559 -78.8636 139° Southeast  Level Estimated
12:41AM 12.4558 -78.7731 139° Southeast  Level Estimated
12:42AM 12.3558 -78.6827 139° Southeast  Level Estimated
12:43AM 12.2556 -78.5924 139° Southeast  Level Estimated
12:44AM 12.1555 -78.5021 139° Southeast  Level Estimated
12:45AM 12.0554 -78.4119 139° Southeast  Level Estimated
12:46AM 11.9552 -78.3218 139° Southeast  Level Estimated
12:47AM 11.8549 -78.2317 139° Southeast  Level Estimated
12:48AM 11.7547 -78.1417 139° Southeast  Level Estimated
12:49AM 11.6544 -78.0518 139° Southeast  Level Estimated
12:50AM 11.5541 -77.9619 139° Southeast  Level Estimated
12:51AM 11.4538 -77.8721 139° Southeast  Level Estimated
12:52AM 11.3534 -77.7824 139° Southeast  Level Estimated
12:52AM 10.9990 -77.4480 139° Southeast 504 580 33,000  Level FlightAware
12:53AM 11.2530 -77.6927 139° Southeast  Level Estimated
12:53AM 10.9350 -77.3950 141° Southeast 500 575 33,000  Level FlightAware
12:54AM 10.8810 -77.3450 138° Southeast 506 582 33,000  Level FlightAware
12:54AM 10.8130 -77.2810 137° Southeast 503 579 33,000  Level FlightAware
12:55AM 10.7350 -77.2070 137° Southeast 502 578 33,000  Level FlightAware
12:56AM 10.6830 -77.1580 137° Southeast 502 578 33,000  Level FlightAware
12:56AM 10.6300 -77.1070 137° Southeast 502 578 33,000  Level FlightAware
12:57AM 10.5430 -77.0290 139° Southeast 33,000  Level FlightAware
12:57AM 10.4800 -76.9700 137° Southeast 502 578 33,000  Level FlightAware
12:58AM 10.4150 -76.9100 138° Southeast 502 578 33,000  Level FlightAware
12:59AM 10.3530 -76.8520 137° Southeast 502 578 33,000  Level FlightAware
12:59AM 10.2840 -76.7890 138° Southeast 501 577 33,000  Level FlightAware
01:00AM 10.2720 -76.7780 138° Southeast 501 577 33,000  Level FlightAware
01:00AM 10.1810 -76.6930 137° Southeast 501 577 33,000  Level FlightAware
01:01AM 10.1080 -76.6250 137° Southeast 500 575 33,000  Level FlightAware
01:02AM 10.0540 -76.5740 137° Southeast 500 575 33,000  Level FlightAware
01:02AM 10.0360 -76.5570 137° Southeast 500 575 33,000  Level FlightAware
01:03AM 9.9030 -76.4350 138° Southeast 498 573 33,000  Level FlightAware
01:04AM 9.8370 -76.3730 137° Southeast 490 564 33,000  Level FlightAware
01:04AM 9.7800 -76.3220 139° Southeast 488 562 33,000  Level FlightAware
01:05AM 9.7040 -76.2520 138° Southeast 493 567 33,000  Level FlightAware
01:06AM 9.6460 -76.1980 137° Southeast 493 567 33,000  Level FlightAware
01:06AM 9.5850 -76.1410 137° Southeast 493 567 33,000  Level FlightAware
01:07AM 9.5270 -76.0880 138° Southeast 493 567 33,000  Level FlightAware
01:07AM 9.4720 -76.0370 138° Southeast 492 566 33,000  Level FlightAware
01:08AM 9.4010 -75.9720 138° Southeast 491 565 33,000  Level FlightAware
01:09AM 9.3360 -75.9120 138° Southeast 488 562 33,000  Level FlightAware
01:09AM 9.2790 -75.8590 137° Southeast 486 559 33,000  Level FlightAware
01:10AM 9.2170 -75.8020 138° Southeast 481 554 33,000  Level FlightAware
01:11AM 9.1500 -75.7410 138° Southeast 479 551 33,000  Level FlightAware
01:11AM 9.0990 -75.6940 138° Southeast 481 554 33,000  Level FlightAware
01:12AM 9.0340 -75.6340 138° Southeast 482 555 33,000  Level FlightAware
01:13AM 8.9440 -75.5520 138° Southeast 481 554 33,000  Level FlightAware
01:13AM 8.8910 -75.5030 138° Southeast 479 551 33,000  Level FlightAware
01:14AM 8.8130 -75.4310 138° Southeast 478 550 33,000  Level FlightAware
01:15AM 8.7560 -75.3790 138° Southeast 478 550 33,000  Level FlightAware
01:15AM 8.6910 -75.3190 138° Southeast 477 549 33,000  Level FlightAware
01:16AM 8.6330 -75.2670 138° Southeast 478 550 33,000  Level FlightAware
01:16AM 8.5790 -75.2170 138° Southeast 478 550 33,000  Level FlightAware
01:17AM 8.5190 -75.1620 138° Southeast 479 551 33,000  Level FlightAware
01:18AM 8.4640 -75.1110 137° Southeast 480 552 33,000  Level FlightAware
01:18AM 8.4020 -75.0550 138° Southeast 481 554 33,000  Level FlightAware
01:19AM 8.3460 -75.0040 138° Southeast 483 556 33,000  Level FlightAware
01:19AM 8.2870 -74.9500 138° Southeast 483 556 33,000  Level FlightAware
01:20AM 8.2210 -74.8900 138° Southeast 481 554 33,000  Level FlightAware
01:20AM 8.1720 -74.8450 138° Southeast 481 554 33,000  Level FlightAware
01:21AM 8.1040 -74.7830 138° Southeast 482 555 33,000  Level FlightAware
01:22AM 8.0460 -74.7300 138° Southeast 479 551 33,000  Level FlightAware
01:23AM 7.9400 -74.6330 138° Southeast 478 550 33,000  Level FlightAware
01:23AM 7.8910 -74.5890 138° Southeast 479 551 33,000  Level FlightAware
01:24AM 7.8290 -74.5330 138° Southeast 480 552 33,000  Level FlightAware
01:24AM 7.7740 -74.4830 138° Southeast 480 552 33,000  Level FlightAware
01:25AM 7.7150 -74.4380 143° Southeast 478 550 33,000  Level FlightAware
01:26AM 7.6470 -74.3950 148° Southeast 477 549 33,000  Level FlightAware
01:26AM 7.5800 -74.3540 149° Southeast 478 550 33,000  Level FlightAware
01:27AM 7.5130 -74.3130 149° Southeast 481 554 33,000  Level FlightAware
01:27AM 7.4480 -74.2740 149° Southeast 482 555 33,000  Level FlightAware
01:28AM 7.3880 -74.2380 149° Southeast 482 555 33,000  Level FlightAware
01:29AM 7.3150 -74.1920 148° Southeast 479 551 33,000  Level FlightAware
01:29AM 7.2300 -74.1400 149° Southeast 478 550 33,000  Level FlightAware
01:30AM 7.1640 -74.1000 149° Southeast 478 550 33,000  Level FlightAware
01:30AM 7.0970 -74.0590 149° Southeast 478 550 33,000  Level FlightAware
01:31AM 7.0390 -74.0230 148° Southeast 480 552 33,000  Level FlightAware
01:32AM 6.9550 -73.9720 149° Southeast 482 555 33,000  Level FlightAware
01:32AM 6.8970 -73.9370 149° Southeast 482 555 33,000  Level FlightAware
01:33AM 6.8380 -73.9010 149° Southeast 482 555 33,000  Level FlightAware
01:34AM 6.7800 -73.8660 149° Southeast 482 555 33,000  Level FlightAware
01:34AM 6.6660 -73.7950 148° Southeast 491 565 33,000  Level FlightAware
01:35AM 6.5940 -73.7520 149° Southeast 488 562 33,000  Level FlightAware
01:35AM 6.5230 -73.7080 148° Southeast 485 558 33,000  Level FlightAware
01:36AM 6.4620 -73.6710 149° Southeast 484 557 33,000  Level FlightAware
01:37AM 6.3930 -73.6290 149° Southeast 483 556 33,000  Level FlightAware
01:37AM 6.3230 -73.5870 149° Southeast 481 554 33,000  Level FlightAware
01:38AM 6.2590 -73.5480 149° Southeast 479 551 33,000  Level FlightAware
01:38AM 6.1960 -73.5090 148° Southeast 477 549 33,000  Level FlightAware
01:39AM 6.1250 -73.4660 149° Southeast 477 549 33,000  Level FlightAware
01:39AM 6.0560 -73.4240 149° Southeast 479 551 33,000  Level FlightAware
01:40AM 5.9970 -73.3880 149° Southeast 479 551 33,000  Level FlightAware
01:41AM 5.9360 -73.3500 148° Southeast 479 551 33,000  Level FlightAware
01:41AM 5.8790 -73.3140 148° Southeast 479 551 33,000  Level FlightAware
01:42AM 5.8210 -73.2780 148° Southeast 479 551 33,000  Level FlightAware
01:42AM 5.7640 -73.2420 148° Southeast 479 551 33,000  Level FlightAware
01:43AM 5.7060 -73.2060 148° Southeast 479 551 33,000  Level FlightAware
01:44AM 5.6490 -73.1700 148° Southeast 479 551 33,000  Level FlightAware
01:44AM 5.5100 -73.0930 151° Southeast 482 555 33,000  Level FlightAware
01:45AM 5.4460 -73.0520 147° Southeast 484 557 33,000  Level FlightAware
01:45AM 5.3820 -73.0060 144° Southeast 488 562 33,000  Level FlightAware
01:46AM 5.3170 -72.9590 144° Southeast 491 565 33,000  Level FlightAware
01:47AM 5.2510 -72.9130 145° Southeast 489 563 33,000  Level FlightAware
01:47AM 5.1830 -72.8670 146° Southeast 488 562 33,000  Level FlightAware
01:48AM 5.1250 -72.8270 146° Southeast 486 559 33,000  Level FlightAware
01:48AM 5.0650 -72.7850 145° Southeast 485 558 33,000  Level FlightAware
01:49AM 5.0080 -72.7460 146° Southeast 485 558 33,000  Level FlightAware
01:50AM 4.9520 -72.7060 145° Southeast 485 558 33,000  Level FlightAware
01:50AM 4.8940 -72.6660 146° Southeast 485 558 33,000  Level FlightAware
01:51AM 4.8380 -72.6260 145° Southeast 485 558 33,000  Level FlightAware
01:51AM 4.7820 -72.5870 145° Southeast 485 558 33,000  Level FlightAware
01:52AM 4.7260 -72.5470 145° Southeast 485 558 33,000  Level FlightAware
01:53AM 4.6680 -72.5070 145° Southeast 485 558 33,000  Level FlightAware
01:53AM 4.6110 -72.4670 145° Southeast 485 558 33,000  Level FlightAware
01:54AM 4.5520 -72.4250 145° Southeast 485 558 33,000  Level FlightAware
01:54AM 4.4940 -72.3850 145° Southeast 485 558 33,000  Level FlightAware
01:55AM 4.4380 -72.3450 145° Southeast 485 558 33,000  Level FlightAware
01:56AM 4.3820 -72.3060 145° Southeast 485 558 33,000  Level FlightAware
01:56AM 4.3260 -72.2660 145° Southeast 485 558 33,000  Level FlightAware
01:57AM 4.2690 -72.2270 146° Southeast 485 558 33,000  Level FlightAware
01:57AM 4.2150 -72.1880 144° Southeast 485 558 33,000  Level FlightAware
02:00AM 4.0053 -72.0050 145° Southeast  Level Estimated
02:01AM 3.8928 -71.9329 147° Southeast  Level FlightAware Approximate
02:02AM 3.7804 -71.8609 147° Southeast  Level FlightAware Approximate
02:03AM 3.6680 -71.7888 147° Southeast  Level FlightAware Approximate
02:04AM 3.5555 -71.7168 147° Southeast  Level FlightAware Approximate
02:05AM 3.4431 -71.6448 147° Southeast  Level FlightAware Approximate
02:06AM 3.3306 -71.5728 147° Southeast  Level FlightAware Approximate
02:07AM 3.2181 -71.5009 147° Southeast  Level FlightAware Approximate
02:08AM 3.1057 -71.4289 147° Southeast  Level FlightAware Approximate
02:09AM 2.9932 -71.3570 147° Southeast  Level FlightAware Approximate
02:10AM 2.8807 -71.2851 147° Southeast  Level FlightAware Approximate
02:11AM 2.7682 -71.2132 147° Southeast  Level FlightAware Approximate
02:12AM 2.6558 -71.1413 147° Southeast  Level FlightAware Approximate
02:13AM 2.5433 -71.0694 147° Southeast  Level FlightAware Approximate
02:14AM 2.4308 -70.9975 147° Southeast  Level FlightAware Approximate
02:15AM 2.3183 -70.9257 147° Southeast  Level FlightAware Approximate
02:16AM 2.2058 -70.8538 147° Southeast  Level FlightAware Approximate
02:17AM 2.0933 -70.7820 147° Southeast  Level FlightAware Approximate
02:18AM 1.9807 -70.7102 147° Southeast  Level FlightAware Approximate
02:19AM 1.8682 -70.6384 147° Southeast  Level FlightAware Approximate
02:20AM 1.7557 -70.5666 147° Southeast  Level FlightAware Approximate
02:21AM 1.6432 -70.4948 147° Southeast  Level FlightAware Approximate
02:22AM 1.5307 -70.4230 147° Southeast  Level FlightAware Approximate
02:23AM 1.4182 -70.3512 147° Southeast  Level FlightAware Approximate
02:24AM 1.3056 -70.2794 147° Southeast  Level FlightAware Approximate
02:25AM 1.2040 -70.2072 138° Southeast  Level FlightAware Approximate
02:26AM 1.1043 -70.1185 138° Southeast  Level FlightAware Approximate
02:27AM 1.0046 -70.0297 138° Southeast  Level FlightAware Approximate
02:28AM 0.9049 -69.9410 138° Southeast  Level FlightAware Approximate
02:29AM 0.8052 -69.8523 138° Southeast  Level FlightAware Approximate
02:30AM 0.7055 -69.7636 138° Southeast  Level FlightAware Approximate
02:31AM 0.6058 -69.6749 138° Southeast  Level FlightAware Approximate
02:32AM 0.5061 -69.5861 138° Southeast  Level FlightAware Approximate
02:33AM 0.4064 -69.4974 138° Southeast  Level FlightAware Approximate
02:34AM 0.3067 -69.4087 138° Southeast  Level FlightAware Approximate
02:35AM 0.2069 -69.3200 138° Southeast  Level FlightAware Approximate
02:36AM 0.1072 -69.2313 138° Southeast  Level FlightAware Approximate
02:37AM 0.0075 -69.1426 138° Southeast  Level FlightAware Approximate
02:38AM -0.0922 -69.0539 138° Southeast  Level FlightAware Approximate
02:39AM -0.1919 -68.9652 138° Southeast  Level FlightAware Approximate
02:40AM -0.2916 -68.8765 138° Southeast  Level FlightAware Approximate
02:41AM -0.3913 -68.7878 138° Southeast  Level FlightAware Approximate
02:42AM -0.4910 -68.6991 138° Southeast  Level FlightAware Approximate
02:43AM -0.5907 -68.6104 138° Southeast  Level FlightAware Approximate
02:44AM -0.6904 -68.5216 138° Southeast  Level FlightAware Approximate
02:45AM -0.7901 -68.4329 138° Southeast  Level FlightAware Approximate
02:46AM -0.8898 -68.3442 138° Southeast  Level FlightAware Approximate
02:47AM -0.9895 -68.2555 138° Southeast  Level FlightAware Approximate
02:48AM -1.0892 -68.1667 138° Southeast  Level FlightAware Approximate
02:49AM -1.1889 -68.0780 138° Southeast  Level FlightAware Approximate
02:50AM -1.2886 -67.9892 138° Southeast  Level FlightAware Approximate
02:51AM -1.3883 -67.9005 138° Southeast  Level FlightAware Approximate
02:52AM -1.4880 -67.8117 138° Southeast  Level FlightAware Approximate
02:53AM -1.5877 -67.7230 138° Southeast  Level FlightAware Approximate
02:54AM -1.6873 -67.6342 138° Southeast  Level FlightAware Approximate
02:55AM -1.7870 -67.5454 138° Southeast  Level FlightAware Approximate
02:56AM -1.8867 -67.4566 138° Southeast  Level FlightAware Approximate
02:57AM -1.9863 -67.3678 138° Southeast  Level FlightAware Approximate
02:58AM -2.0860 -67.2790 138° Southeast  Level FlightAware Approximate
02:59AM -2.1857 -67.1901 138° Southeast  Level FlightAware Approximate
03:00AM -2.2853 -67.1013 138° Southeast  Level FlightAware Approximate
03:01AM -2.3849 -67.0124 138° Southeast  Level FlightAware Approximate
03:02AM -2.4846 -66.9236 138° Southeast  Level FlightAware Approximate
03:03AM -2.5842 -66.8347 138° Southeast  Level FlightAware Approximate
03:04AM -2.6838 -66.7458 138° Southeast  Level FlightAware Approximate
03:05AM -2.7835 -66.6569 138° Southeast  Level FlightAware Approximate
03:06AM -2.8831 -66.5680 138° Southeast  Level FlightAware Approximate
03:07AM -2.9827 -66.4790 138° Southeast  Level FlightAware Approximate
03:08AM -3.0823 -66.3901 138° Southeast  Level FlightAware Approximate
03:09AM -3.1819 -66.3011 138° Southeast  Level FlightAware Approximate
03:10AM -3.2815 -66.2121 138° Southeast  Level FlightAware Approximate
03:11AM -3.3810 -66.1231 138° Southeast  Level FlightAware Approximate
03:12AM -3.4806 -66.0341 138° Southeast  Level FlightAware Approximate
03:13AM -3.5802 -65.9451 138° Southeast  Level FlightAware Approximate
03:14AM -3.6797 -65.8560 138° Southeast  Level FlightAware Approximate
03:15AM -3.7792 -65.7669 138° Southeast  Level FlightAware Approximate
03:16AM -3.8788 -65.6778 138° Southeast  Level FlightAware Approximate
03:17AM -3.9783 -65.5887 138° Southeast  Level FlightAware Approximate
03:18AM -4.0778 -65.4996 138° Southeast  Level FlightAware Approximate
03:19AM -4.1773 -65.4104 138° Southeast  Level FlightAware Approximate
03:20AM -4.2768 -65.3212 138° Southeast  Level FlightAware Approximate
03:21AM -4.3763 -65.2320 138° Southeast  Level FlightAware Approximate
03:22AM -4.4757 -65.1428 138° Southeast  Level FlightAware Approximate
03:23AM -4.5752 -65.0535 138° Southeast  Level FlightAware Approximate
03:24AM -4.6747 -64.9642 138° Southeast  Level FlightAware Approximate
03:25AM -4.7741 -64.8749 138° Southeast  Level FlightAware Approximate
03:26AM -4.8735 -64.7856 138° Southeast  Level FlightAware Approximate
03:27AM -4.9729 -64.6962 138° Southeast  Level FlightAware Approximate
03:28AM -5.0724 -64.6068 138° Southeast  Level FlightAware Approximate
03:29AM -5.1717 -64.5174 138° Southeast  Level FlightAware Approximate
03:30AM -5.2711 -64.4279 138° Southeast  Level FlightAware Approximate
03:31AM -5.3705 -64.3385 138° Southeast  Level FlightAware Approximate
03:32AM -5.4698 -64.2490 138° Southeast  Level FlightAware Approximate
03:33AM -5.5692 -64.1594 138° Southeast  Level FlightAware Approximate
03:34AM -5.6685 -64.0699 138° Southeast  Level FlightAware Approximate
03:35AM -5.7678 -63.9803 138° Southeast  Level FlightAware Approximate
03:36AM -5.8671 -63.8907 138° Southeast  Level FlightAware Approximate
03:37AM -5.9664 -63.8010 138° Southeast  Level FlightAware Approximate
03:38AM -6.0657 -63.7113 138° Southeast  Level FlightAware Approximate
03:39AM -6.1649 -63.6216 138° Southeast  Level FlightAware Approximate
03:40AM -6.2642 -63.5318 138° Southeast  Level FlightAware Approximate
03:41AM -6.3634 -63.4420 138° Southeast  Level FlightAware Approximate
03:42AM -6.4626 -63.3522 138° Southeast  Level FlightAware Approximate
03:43AM -6.5618 -63.2623 138° Southeast  Level FlightAware Approximate
03:44AM -6.6610 -63.1724 138° Southeast  Level FlightAware Approximate
03:45AM -6.7601 -63.0825 138° Southeast  Level FlightAware Approximate
03:46AM -6.8593 -62.9925 138° Southeast  Level FlightAware Approximate
03:47AM -6.9584 -62.9025 138° Southeast  Level FlightAware Approximate
03:48AM -7.0575 -62.8125 138° Southeast  Level FlightAware Approximate
03:49AM -7.1566 -62.7224 138° Southeast  Level FlightAware Approximate
03:50AM -7.2557 -62.6323 138° Southeast  Level FlightAware Approximate
03:51AM -7.3547 -62.5421 138° Southeast  Level FlightAware Approximate
03:52AM -7.4538 -62.4519 138° Southeast  Level FlightAware Approximate
03:53AM -7.5528 -62.3617 138° Southeast  Level FlightAware Approximate
03:54AM -7.6518 -62.2714 138° Southeast  Level FlightAware Approximate
03:55AM -7.7508 -62.1811 138° Southeast  Level FlightAware Approximate
03:56AM -7.8497 -62.0907 138° Southeast  Level FlightAware Approximate
03:57AM -7.9487 -62.0003 138° Southeast  Level FlightAware Approximate
03:58AM -8.0474 -61.9100 138° Southeast  Level FlightAware Approximate
03:59AM -8.1462 -61.8197 138° Southeast  Level FlightAware Approximate
04:00AM -8.2449 -61.7293 138° Southeast  Level FlightAware Approximate
04:01AM -8.3436 -61.6389 138° Southeast  Level FlightAware Approximate
04:02AM -8.4422 -61.5484 138° Southeast  Level FlightAware Approximate
04:03AM -8.5409 -61.4579 138° Southeast  Level FlightAware Approximate
04:04AM -8.6395 -61.3673 138° Southeast  Level FlightAware Approximate
04:05AM -8.7381 -61.2767 138° Southeast  Level FlightAware Approximate
04:06AM -8.8367 -61.1860 138° Southeast  Level FlightAware Approximate
04:07AM -8.9353 -61.0953 138° Southeast  Level FlightAware Approximate
04:08AM -9.0338 -61.0046 138° Southeast  Level FlightAware Approximate
04:09AM -9.1323 -60.9137 138° Southeast  Level FlightAware Approximate
04:10AM -9.2308 -60.8229 138° Southeast  Level FlightAware Approximate
04:11AM -9.3293 -60.7320 138° Southeast  Level FlightAware Approximate
04:12AM -9.4278 -60.6410 138° Southeast  Level FlightAware Approximate
04:13AM -9.5262 -60.5500 138° Southeast  Level FlightAware Approximate
04:14AM -9.6246 -60.4589 138° Southeast  Level FlightAware Approximate
04:15AM -9.7230 -60.3678 138° Southeast  Level FlightAware Approximate
04:16AM -9.8213 -60.2766 138° Southeast  Level FlightAware Approximate
04:17AM -9.9197 -60.1854 138° Southeast  Level FlightAware Approximate
04:18AM -10.0180 -60.0941 138° Southeast  Level FlightAware Approximate
04:19AM -10.1164 -60.0026 138° Southeast  Level FlightAware Approximate
04:20AM -10.2149 -59.9111 138° Southeast  Level FlightAware Approximate
04:21AM -10.3133 -59.8195 138° Southeast  Level FlightAware Approximate
04:22AM -10.4116 -59.7278 137° Southeast  Level FlightAware Approximate
04:23AM -10.5100 -59.6361 137° Southeast  Level FlightAware Approximate
04:24AM -10.6083 -59.5443 137° Southeast  Level FlightAware Approximate
04:25AM -10.7066 -59.4524 137° Southeast  Level FlightAware Approximate
04:26AM -10.8049 -59.3605 137° Southeast  Level FlightAware Approximate
04:27AM -10.9031 -59.2686 137° Southeast  Level FlightAware Approximate
04:28AM -11.0014 -59.1765 137° Southeast  Level FlightAware Approximate
04:29AM -11.0996 -59.0844 137° Southeast  Level FlightAware Approximate
04:30AM -11.1977 -58.9923 137° Southeast  Level FlightAware Approximate
04:31AM -11.2959 -58.9001 137° Southeast  Level FlightAware Approximate
04:32AM -11.3940 -58.8078 137° Southeast  Level FlightAware Approximate
04:33AM -11.4921 -58.7155 137° Southeast  Level FlightAware Approximate
04:34AM -11.5901 -58.6231 137° Southeast  Level FlightAware Approximate
04:35AM -11.6881 -58.5306 137° Southeast  Level FlightAware Approximate
04:36AM -11.7861 -58.4380 137° Southeast  Level FlightAware Approximate
04:37AM -11.8841 -58.3455 137° Southeast  Level FlightAware Approximate
04:38AM -11.9820 -58.2528 137° Southeast  Level FlightAware Approximate
04:39AM -12.0799 -58.1600 137° Southeast  Level FlightAware Approximate
04:40AM -12.1778 -58.0672 137° Southeast  Level FlightAware Approximate
04:41AM -12.2756 -57.9744 137° Southeast  Level FlightAware Approximate
04:42AM -12.3734 -57.8814 137° Southeast  Level FlightAware Approximate
04:43AM -12.4712 -57.7884 137° Southeast  Level FlightAware Approximate
04:44AM -12.5689 -57.6954 137° Southeast  Level FlightAware Approximate
04:45AM -12.6666 -57.6022 137° Southeast  Level FlightAware Approximate
04:46AM -12.7643 -57.5090 137° Southeast  Level FlightAware Approximate
04:47AM -12.8620 -57.4157 137° Southeast  Level FlightAware Approximate
04:48AM -12.9596 -57.3223 137° Southeast  Level FlightAware Approximate
04:49AM -13.0572 -57.2289 137° Southeast  Level FlightAware Approximate
04:50AM -13.1547 -57.1354 137° Southeast  Level FlightAware Approximate
04:51AM -13.2522 -57.0418 137° Southeast  Level FlightAware Approximate
04:52AM -13.3497 -56.9481 137° Southeast  Level FlightAware Approximate
04:53AM -13.4472 -56.8544 137° Southeast  Level FlightAware Approximate
04:54AM -13.5446 -56.7606 137° Southeast  Level FlightAware Approximate
04:55AM -13.6419 -56.6667 137° Southeast  Level FlightAware Approximate
04:56AM -13.7393 -56.5727 137° Southeast  Level FlightAware Approximate
04:57AM -13.8366 -56.4787 137° Southeast  Level FlightAware Approximate
04:58AM -13.9338 -56.3845 137° Southeast  Level FlightAware Approximate
04:59AM -14.0311 -56.2903 137° Southeast  Level FlightAware Approximate
05:00AM -14.1283 -56.1960 137° Southeast  Level FlightAware Approximate
05:01AM -14.2254 -56.1017 137° Southeast  Level FlightAware Approximate
05:02AM -14.3225 -56.0072 137° Southeast  Level FlightAware Approximate
05:03AM -14.4196 -55.9127 137° Southeast  Level FlightAware Approximate
05:04AM -14.5167 -55.8181 137° Southeast  Level FlightAware Approximate
05:05AM -14.6137 -55.7234 137° Southeast  Level FlightAware Approximate
05:06AM -14.7107 -55.6286 137° Southeast  Level FlightAware Approximate
05:07AM -14.8076 -55.5338 137° Southeast  Level FlightAware Approximate
05:08AM -14.9045 -55.4388 137° Southeast  Level FlightAware Approximate
05:09AM -15.0013 -55.3438 137° Southeast  Level FlightAware Approximate
05:10AM -15.0981 -55.2487 137° Southeast  Level FlightAware Approximate
05:11AM -15.1949 -55.1535 136° Southeast  Level FlightAware Approximate
05:12AM -15.2916 -55.0582 136° Southeast  Level FlightAware Approximate
05:13AM -15.3883 -54.9628 136° Southeast  Level FlightAware Approximate
05:14AM -15.4850 -54.8673 136° Southeast  Level FlightAware Approximate
05:15AM -15.5816 -54.7718 136° Southeast  Level FlightAware Approximate
05:16AM -15.6782 -54.6761 136° Southeast  Level FlightAware Approximate
05:17AM -15.7747 -54.5804 136° Southeast  Level FlightAware Approximate
05:18AM -15.8712 -54.4846 136° Southeast  Level FlightAware Approximate
05:19AM -15.9676 -54.3886 136° Southeast  Level FlightAware Approximate
05:20AM -16.0640 -54.2926 136° Southeast  Level FlightAware Approximate
05:21AM -16.1604 -54.1965 136° Southeast  Level FlightAware Approximate
05:22AM -16.2567 -54.1003 136° Southeast  Level FlightAware Approximate
05:23AM -16.3530 -54.0040 136° Southeast  Level FlightAware Approximate
05:24AM -16.4492 -53.9076 136° Southeast  Level FlightAware Approximate
05:25AM -16.5454 -53.8111 136° Southeast  Level FlightAware Approximate
05:26AM -16.6415 -53.7146 136° Southeast  Level FlightAware Approximate
05:27AM -16.7376 -53.6179 136° Southeast  Level FlightAware Approximate
05:28AM -16.8337 -53.5211 136° Southeast  Level FlightAware Approximate
05:29AM -16.9297 -53.4242 136° Southeast  Level FlightAware Approximate
05:30AM -17.0257 -53.3273 136° Southeast  Level FlightAware Approximate
05:31AM -17.1216 -53.2302 136° Southeast  Level FlightAware Approximate
05:32AM -17.2174 -53.1330 136° Southeast  Level FlightAware Approximate
05:33AM -17.3133 -53.0358 136° Southeast  Level FlightAware Approximate
05:34AM -17.4090 -52.9384 136° Southeast  Level FlightAware Approximate
05:35AM -17.5048 -52.8409 136° Southeast  Level FlightAware Approximate
05:36AM -17.6004 -52.7433 136° Southeast  Level FlightAware Approximate
05:37AM -17.6961 -52.6456 136° Southeast  Level FlightAware Approximate
05:38AM -17.7917 -52.5479 136° Southeast  Level FlightAware Approximate
05:38AM -18.6320 -51.0690 136° Southeast 516 594 37,000  Level FlightAware
05:39AM -17.8872 -52.4500 136° Southeast  Level FlightAware Approximate
05:39AM -18.6800 -51.0160 134° Southeast 516 594 37,000  Level FlightAware
05:40AM -18.7960 -50.8900 134° Southeast 516 594 37,000  Level FlightAware
05:41AM -18.8340 -50.8480 134° Southeast 516 594 37,000  Level FlightAware
05:42AM -18.9030 -50.7730 134° Southeast 516 594 37,000  Level FlightAware
05:42AM -18.9550 -50.7160 134° Southeast 516 594 37,000  Level FlightAware
05:43AM -19.0750 -50.5890 135° Southeast 514 592 37,000  Level FlightAware
05:43AM -19.0900 -50.5720 133° Southeast 513 590 37,000  Level FlightAware
05:44AM -19.1850 -50.4680 134° Southeast 513 590 37,000  Level FlightAware
05:45AM -19.2430 -50.4060 135° Southeast 512 589 37,000  Level FlightAware
05:45AM -19.3020 -50.3400 133° Southeast 511 588 37,000  Level FlightAware
05:46AM -19.3620 -50.2740 134° Southeast 510 587 37,000  Level FlightAware
05:46AM -19.4190 -50.2120 134° Southeast 510 587 37,000  Level FlightAware
05:47AM -19.4690 -50.1570 134° Southeast 510 587 37,000  Level FlightAware
05:48AM -19.5210 -50.1000 134° Southeast 510 587 37,000  Level FlightAware
05:48AM -19.5810 -50.0330 134° Southeast 510 587 37,000  Level FlightAware
05:49AM -19.6380 -49.9700 134° Southeast 510 587 37,000  Level FlightAware
05:49AM -19.7060 -49.8970 135° Southeast 510 587 37,000  Level FlightAware
05:50AM -19.7690 -49.8280 134° Southeast 510 587 37,000  Level FlightAware
05:51AM -19.8330 -49.7580 134° Southeast 512 589 37,000  Level FlightAware
05:51AM -19.8860 -49.7000 134° Southeast 512 589 37,000  Level FlightAware
05:52AM -19.9450 -49.6350 134° Southeast 512 589 37,000  Level FlightAware
05:52AM -19.9910 -49.5850 134° Southeast 512 589 37,000  Level FlightAware
05:53AM -20.0370 -49.5350 134° Southeast 512 589 37,000  Level FlightAware
05:53AM -20.0970 -49.4690 134° Southeast 512 589 37,000  Level FlightAware
05:54AM -20.1730 -49.3840 134° Southeast 512 589 37,000  Level FlightAware
05:55AM -20.2310 -49.3210 134° Southeast 512 589 37,000  Level FlightAware
05:55AM -20.2840 -49.2620 134° Southeast 512 589 37,000  Level FlightAware
05:56AM -20.3330 -49.2080 134° Southeast 511 588 37,000  Level FlightAware
05:56AM -20.4070 -49.1260 134° Southeast 511 588 37,000  Level FlightAware
05:57AM -20.4600 -49.0680 134° Southeast 511 588 37,000  Level FlightAware
05:57AM -20.5190 -49.0020 134° Southeast 512 589 37,000  Level FlightAware
05:58AM -20.5810 -48.9340 134° Southeast 512 589 37,000  Level FlightAware
05:59AM -20.6370 -48.8710 134° Southeast 513 590 37,000  Level FlightAware
05:59AM -20.6900 -48.8120 134° Southeast 514 592 37,000  Level FlightAware
05:59AM -20.7110 -48.7890 134° Southeast 513 590 37,000  Level FlightAware
06:00AM -20.7680 -48.7240 133° Southeast 514 592 37,000  Level FlightAware
06:01AM -20.8740 -48.6060 134° Southeast 514 592 37,000  Level FlightAware
06:02AM -20.9320 -48.5400 133° Southeast 514 592 37,000  Level FlightAware
06:02AM -20.9850 -48.4810 134° Southeast 514 592 37,000  Level FlightAware
06:03AM -21.0450 -48.4140 134° Southeast 514 592 37,000  Level FlightAware
06:03AM -21.0580 -48.3990 133° Southeast 513 590 37,000  Level FlightAware
06:04AM -21.1460 -48.3000 134° Southeast 512 589 37,000  Level FlightAware
06:05AM -21.2040 -48.2340 133° Southeast 512 589 37,000  Level FlightAware
06:05AM -21.2880 -48.1380 133° Southeast 513 590 37,000  Level FlightAware
06:06AM -21.3490 -48.0700 134° Southeast 513 590 37,000  Level FlightAware
06:07AM -21.4110 -47.9990 133° Southeast 513 590 37,000  Level FlightAware
06:07AM -21.4620 -47.9420 134° Southeast 513 590 37,000  Level FlightAware
06:08AM -21.5270 -47.8680 133° Southeast 515 593 37,000  Level FlightAware
06:08AM -21.5940 -47.7920 133° Southeast 516 594 37,000 -180 Level FlightAware
06:09AM -21.6460 -47.7320 133° Southeast 513 590 36,800 -600 Descending FlightAware
06:10AM -21.7070 -47.6630 134° Southeast 492 566 36,300 -840 Descending FlightAware
06:10AM -21.7470 -47.6180 134° Southeast 476 548 35,900 -1,080 Descending FlightAware
06:11AM -21.7880 -47.5710 133° Southeast 467 537 35,200 -1,500 Descending FlightAware
06:11AM -21.8380 -47.5130 133° Southeast 460 529 34,100 -1,920 Descending FlightAware
06:12AM -21.8890 -47.4540 133° Southeast 454 522 32,900 -1,980 Descending FlightAware
06:12AM -21.9410 -47.3950 134° Southeast 442 509 31,800 -2,580 Descending FlightAware
06:13AM -21.9730 -47.3620 136° Southeast 433 498 31,000 -2,520 Descending FlightAware
06:13AM -22.0440 -47.3190 151° Southeast 408 470 29,700 -1,920 Descending FlightAware
06:14AM -22.1040 -47.2950 160° South 398 458 28,600 -2,040 Descending FlightAware
06:14AM -22.1640 -47.2710 160° South 393 452 27,400 -2,100 Descending FlightAware
06:15AM -22.2270 -47.2450 159° South 388 447 26,100 -2,160 Descending FlightAware
06:16AM -22.2790 -47.2230 159° South 384 442 25,000 -2,040 Descending FlightAware
06:16AM -22.3390 -47.1980 159° South 380 437 23,800 -1,860 Descending FlightAware
06:17AM -22.3990 -47.1740 160° South 375 432 22,800 -1,620 Descending FlightAware
06:17AM -22.4550 -47.1500 158° South 368 423 21,900 -1,500 Descending FlightAware
06:18AM -22.5060 -47.1280 158° South 363 418 21,100 -1,500 Descending FlightAware
06:19AM -22.5620 -47.1040 158° South 355 409 20,200 -1,500 Descending FlightAware
06:19AM -22.6110 -47.0830 158° South 349 402 19,400 -1,440 Descending FlightAware
06:19AM -22.6450 -47.0690 159° South 344 396 18,900 -1,260 Descending FlightAware
06:20AM -22.6940 -47.0490 159° South 331 381 18,000 -1,500 Descending FlightAware
06:21AM -22.7730 -47.0160 159° South 318 366 16,700 -1,560 Descending FlightAware
06:21AM -22.8160 -46.9970 158° South 314 361 16,000 -1,380 Descending FlightAware
06:22AM -22.8680 -46.9750 159° South 311 358 15,100 -1,380 Descending FlightAware
06:23AM -22.8990 -46.9630 160° South 310 357 14,600 -1,260 Descending FlightAware
06:24AM -22.9650 -46.9350 159° South 311 358 13,300 -1,380 Descending FlightAware
06:24AM -23.0140 -46.9140 158° South 311 358 12,400 -1,560 Descending FlightAware
06:25AM -23.0620 -46.8940 159° South 312 359 11,500 -1,500 Descending FlightAware
06:25AM -23.1080 -46.8740 158° South 303 349 10,700 -1,320 Descending FlightAware
06:26AM -23.1760 -46.8460 159° South 279 321 9,900 -1,260 Descending FlightAware
06:26AM -23.2100 -46.8320 159° South 276 318 9,300 -1,260 Descending FlightAware
06:27AM -23.2280 -46.8240 158° South 274 315 9,000 -1,080 Descending FlightAware
06:27AM -23.2570 -46.8120 159° South 273 314 8,600 -1,020 Descending FlightAware
06:27AM -23.2710 -46.8060 159° South 272 313 8,400 -600 Descending FlightAware
06:28AM -23.2940 -46.7960 158° South 259 298 8,300 -420 Descending FlightAware
06:28AM -23.3200 -46.7850 159° South 241 277 8,100 -420 Descending FlightAware
06:28AM -23.3390 -46.7770 159° South 227 261 8,000 -360 Descending FlightAware
06:29AM -23.3540 -46.7700 157° South 218 251 7,900 -540 Descending FlightAware
06:29AM -23.3740 -46.7610 158° South 215 247 7,700 -780 Descending FlightAware
06:29AM -23.3820 -46.7530 137° Southeast 216 249 7,500 -1,020 Descending FlightAware
06:30AM -23.4010 -46.7360 141° Southeast 215 247 7,100 -1,020 Descending FlightAware
06:30AM -23.4150 -46.7230 140° Southeast 215 247 6,800 -660 Descending FlightAware
06:30AM -23.4210 -46.7170 137° Southeast 214 246 6,700 -720 Descending FlightAware
06:30AM -23.4310 -46.7070 137° Southeast 213 245 6,400 -1,020 Descending FlightAware
06:31AM -23.4460 -46.6920 137° Southeast 210 242 6,100 -960 Descending FlightAware
06:31AM -23.4600 -46.6650 119° Southeast 203 234 5,600 -1,260 Descending FlightAware
06:32AM -23.4670 -46.6470 113° Southeast 207 238 5,100 -1,320 Descending FlightAware
06:32AM -23.4740 -46.6200 106° East 189 217 4,600 -1,020 Descending FlightAware
06:32AM -23.4730 -46.6130 81° East 177 204 4,500 -1,380 Descending FlightAware
06:32AM -23.4680 -46.5940 74° East 166 191 4,200 -1,260 Descending FlightAware
06:33AM -23.4640 -46.5790 74° East 163 188 3,900 -960 Descending FlightAware
06:33AM -23.4600 -46.5640 74° East 156 180 3,600 -780 Descending FlightAware
06:34AM -23.4540 -46.5440 72° East 146 168 3,300 -720 Descending FlightAware
06:34AM -23.4510 -46.5320 75° East 150 173 3,100 -840 Descending FlightAware
06:34AM -23.4480 -46.5220 72° East 152 175 2,900 -900 Descending FlightAware
06:34AM -23.4430 -46.5020 75° East 154 177 2,500 -840 Descending FlightAware
06:35AM -23.4410 -46.4940 75° East 156 180 2,400 -600 Descending FlightAware
06:35AM -23.4360 -46.4750 74° East 145 167 -5,760 Descending FlightAware
06:36AM -23.4310 -46.4580 72° East 120 138  Level FlightAware